首页
METAR-TAF:

METAR-TAF

机场 :

Davenport Municipal Airport

達文波特, 艾奥瓦州, 美国

纬度: 41-36-50N, 经度: 090-35-29W, 海拔: 229米

当前天气观测

该预报发布于22分钟前的10:30 UTC
风速7节,风向
温度 0°C
湿度 86%
气压 1026 hPa
能見度: 9.7公里
多云层高于900英尺
多云层高于1400英尺
阴天层高于3000英尺
轻雾

METAR: KDVN 261030Z AUTO 35007KT 6SM BR BKN009 BKN014 OVC030 00/M02 A3029 RMK AO2 I1001 T00001017 $

时间: 05:52 (10:52 UTC)


TAF: 丢失

超过4000个机场的气象观测和天气预报(METAR&TAF报告)。

可查询的气象台以黄色和红色小点在地图上表示。

将鼠标移到小点上方,可查看气象台名称。

然后点击查看天气观测和预报。

如需切换地图:点击带黑十字的绿色按钮放大地图;点击带横线的绿色按钮缩小地图;或者点击绿色箭头查看邻近地区的地图。


METAR-TAF: